Flight Track Log - Related Links

Times and Time Zones

All times are in EDT time to prevent confusion due to time zone crossing. See the CPT7773 flight status page for this flight to view local times or setup timezone preferences in your user account.

Time Position Orientation Groundspeed Altitude Reporting Facility
EDT Latitude Longitude Course Direction KTS MPH feet Rate Location/Type
Tue 08:12:00 PM 44.3716 -108.6913 120° Southeast  Level FlightAware Approximate
Tue 08:13:00 PM 44.3485 -108.6358 120° Southeast  Level FlightAware Approximate
Tue 08:14:00 PM 44.3255 -108.5804 120° Southeast  Level FlightAware Approximate
Tue 08:15:00 PM 44.3023 -108.5250 120° Southeast  Level FlightAware Approximate
Tue 08:15:00 PM 44.5392 -109.0092 133° Southeast 99 114 6,000  Level Salt Lake Center
Tue 08:16:00 PM 44.2792 -108.4697 120° Southeast  Level FlightAware Approximate
Tue 08:16:02 PM 44.5661 -108.9953 20° North 108 124 6,900  Level Salt Lake Center
Tue 08:17:00 PM 44.2560 -108.4144 120° Southeast  Level FlightAware Approximate
Tue 08:17:03 PM 44.5956 -108.9808 19° North 105 121 8,000  Level Salt Lake Center
Tue 08:18:00 PM 44.2269 -108.3653 133° Southeast  Level FlightAware Approximate
Tue 08:18:05 PM 44.6092 -108.9514 57° Northeast 116 133 8,900  Level Salt Lake Center
Tue 08:19:00 PM 44.1957 -108.3184 133° Southeast  Level FlightAware Approximate
Tue 08:19:06 PM 44.5861 -108.9139 131° Southeast 130 150 9,700  Level Salt Lake Center
Tue 08:20:00 PM 44.1645 -108.2715 133° Southeast  Level FlightAware Approximate
Tue 08:20:07 PM 44.5575 -108.8706 133° Southeast 134 154 10,600  Level Salt Lake Center
Tue 08:21:09 PM 44.5342 -108.8325 131° Southeast 135 155 11,000 244 Climbing Salt Lake Center
Tue 08:22:10 PM 44.5033 -108.7825 131° Southeast 142 163 11,100  Climbing Salt Lake Center
Tue 08:23:12 PM 44.4731 -108.7378 133° Southeast 153 176 11,000  Descending Salt Lake Center
Tue 08:24:14 PM 44.4447 -108.6906 130° Southeast 161 185 11,100  Climbing Salt Lake Center
Tue 08:25:15 PM 44.4114 -108.6389 132° Southeast 161 185 11,000  Descending Salt Lake Center
Tue 08:26:16 PM 44.3814 -108.5922 132° Southeast 164 189 11,100  Climbing Salt Lake Center
Tue 08:27:18 PM 44.3475 -108.5400 132° Southeast 164 189 11,000 -49 Descending Salt Lake Center
Tue 08:28:19 PM 44.3189 -108.4953 132° Southeast 163 188 11,000 49 Level Salt Lake Center
Tue 08:29:21 PM 44.2856 -108.4439 132° Southeast 162 186 11,100  Climbing Salt Lake Center
Tue 08:30:22 PM 44.2558 -108.3992 133° Southeast 162 186 11,000 -49 Descending Salt Lake Center
Tue 08:31:24 PM 44.2275 -108.3544 131° Southeast 162 186 11,000 49 Level Salt Lake Center
Tue 08:32:25 PM 44.1944 -108.3022 131° Southeast 161 185 11,100 49 Climbing Salt Lake Center
Tue 08:33:27 PM 44.1664 -108.2592 132° Southeast 159 183 11,100  Level Salt Lake Center
Tue 08:34:28 PM 44.1344 -108.2100 132° Southeast 157 181 11,100 -49 Level Salt Lake Center
Tue 08:35:30 PM 44.1069 -108.1675 132° Southeast 155 178 11,000  Descending Salt Lake Center
Tue 08:36:31 PM 44.0808 -108.1278 132° Southeast 151 174 11,100  Climbing Salt Lake Center
Tue 08:37:33 PM 44.0475 -108.0783 133° Southeast 153 176 11,000  Descending Salt Lake Center
Tue 08:38:34 PM 44.0189 -108.0356 133° Southeast 155 178 11,100  Climbing Salt Lake Center
Tue 08:39:36 PM 43.9858 -107.9844 132° Southeast 158 182 11,000 -98 Descending Salt Lake Center
Tue 08:40:37 PM 43.9572 -107.9417 133° Southeast 158 182 10,900 -49 Descending Salt Lake Center
Tue 08:41:39 PM 43.9294 -107.8864 125° Southeast 156 180 10,900 49 Level Salt Lake Center
Tue 08:42:40 PM 43.9061 -107.8350 122° Southeast 159 183 11,000 49 Climbing Salt Lake Center
Tue 08:43:42 PM 43.8803 -107.7861 126° Southeast 162 186 11,000  Level Salt Lake Center
Tue 08:44:43 PM 43.8486 -107.7272 127° Southeast 167 192 11,000  Level Salt Lake Center
Tue 08:45:45 PM 43.8225 -107.6753 125° Southeast 169 194 11,000  Level Salt Lake Center
Tue 08:46:46 PM 43.7917 -107.6175 126° Southeast 169 194 11,000  Level Salt Lake Center
Tue 08:47:48 PM 43.7672 -107.5689 125° Southeast 165 190 11,000 -49 Level Salt Lake Center
Tue 08:48:49 PM 43.7428 -107.5211 125° Southeast 162 186 10,900 -49 Descending Salt Lake Center
Tue 08:49:50 PM 43.7144 -107.4681 126° Southeast 158 182 10,900  Level Salt Lake Center
Tue 08:50:52 PM 43.6897 -107.4203 126° Southeast 158 182 10,900  Level Salt Lake Center
Tue 08:51:53 PM 43.6608 -107.3650 126° Southeast 158 182 10,900 49 Level Salt Lake Center
Tue 08:52:55 PM 43.6367 -107.3153 124° Southeast 160 184 11,000 49 Climbing Salt Lake Center
Tue 08:53:56 PM 43.6131 -107.2686 125° Southeast 158 182 11,000  Level Salt Lake Center
Tue 08:54:58 PM 43.5836 -107.2167 128° Southeast 156 180 11,000  Level Salt Lake Center
Tue 08:55:59 PM 43.5586 -107.1686 126° Southeast 158 182 11,000  Level Salt Lake Center
Tue 08:57:00 PM 43.5308 -107.1142 125° Southeast 157 181 11,000  Level Salt Lake Center
Tue 08:57:33 PM 43.5197 -107.0911 124° Southeast 155 178 11,000  Level Denver Center
Tue 08:58:35 PM 43.4967 -107.0456 125° Southeast 153 176 11,000  Level Denver Center
Tue 08:59:36 PM 43.4694 -106.9917 125° Southeast 153 176 11,000  Level Denver Center
Tue 09:00:37 PM 43.4453 -106.9467 126° Southeast 153 176 11,000  Level Denver Center
Tue 09:01:39 PM 43.4183 -106.8947 126° Southeast 150 173 11,000  Level Denver Center
Tue 09:02:40 PM 43.3947 -106.8494 126° Southeast 153 176 11,000 -98 Level Denver Center
Tue 09:03:42 PM 43.3681 -106.7969 125° Southeast 150 173 10,800 -390 Descending Denver Center
Tue 09:04:43 PM 43.3253 -106.7725 157° South 163 188 10,200 -393 Descending Denver Center
Tue 09:05:44 PM 43.2844 -106.7472 156° South 168 193 10,000 -146 Descending Denver Center
Tue 09:06:46 PM 43.2444 -106.7111 147° Southeast 156 180 9,900 -439 Descending Denver Center
Tue 09:07:47 PM 43.2117 -106.6828 148° Southeast 150 173 9,100 -780 Descending Denver Center
Tue 09:08:49 PM 43.1678 -106.6492 151° Southeast 154 177 8,300 -537 Descending Denver Center
Tue 09:09:50 PM 43.1283 -106.6222 153° Southeast 159 183 8,000 -443 Descending Denver Center
Tue 09:10:51 PM 43.0867 -106.6017 160° South 161 185 7,400 -590 Descending Denver Center
Tue 09:12:00 PM 43.0500 -106.5734 151° Southeast  Level Estimated
Tue 09:19:00 PM 42.9080 -106.4644 151° Southeast  Level Estimated
Tue 09:20:00 PM 42.9080 -106.4644 90° East  Level Estimated
Tue 09:21:00 PM 42.9080 -106.4644 90° East  Level Estimated
Tue 09:22:00 PM 42.9080 -106.4644 90° East  Level Estimated
Tue 09:23:00 PM 42.9080 -106.4644 90° East  Level Estimated
Tue 09:24:00 PM 42.9080 -106.4644 90° East  Level Estimated

Login

Don't have an account? Register now (free) for customized features, flight alerts, and more!